createdAt,value
2023-05-06T00:02:20.733Z,9.79
2023-05-06T00:04:48.821Z,9.89
2023-05-06T00:07:17.043Z,9.93
2023-05-06T00:09:44.919Z,9.87
2023-05-06T00:12:12.849Z,9.94
2023-05-06T00:14:41.352Z,9.96
2023-05-06T00:17:09.209Z,10.03
2023-05-06T00:19:37.134Z,9.97
2023-05-06T00:22:05.044Z,9.88
2023-05-06T00:24:32.940Z,9.91
2023-05-06T00:27:01.830Z,9.81
2023-05-06T00:29:30.408Z,9.86
2023-05-06T00:31:58.767Z,9.95
2023-05-06T00:34:26.701Z,9.89
2023-05-06T00:36:54.595Z,9.95
2023-05-06T00:39:22.553Z,9.98
2023-05-06T00:41:50.426Z,9.98
2023-05-06T00:44:18.270Z,9.91
2023-05-06T00:46:46.187Z,9.88
2023-05-06T00:49:15.062Z,9.98
2023-05-06T00:51:43.112Z,10.00
2023-05-06T00:54:11.970Z,10.02
2023-05-06T00:56:42.084Z,10.12
2023-05-06T00:59:10.090Z,9.89
2023-05-06T01:01:38.476Z,10.09
2023-05-06T01:04:07.463Z,10.13
2023-05-06T01:07:10.141Z,10.26
2023-05-06T01:09:55.863Z,10.30
2023-05-06T01:12:34.145Z,10.36
2023-05-06T01:15:14.924Z,10.26
2023-05-06T01:17:50.290Z,10.39
2023-05-06T01:20:21.236Z,10.40
2023-05-06T01:22:49.895Z,10.48
2023-05-06T01:25:20.500Z,10.47
2023-05-06T01:27:50.224Z,10.56
2023-05-06T01:30:21.103Z,10.65
2023-05-06T01:33:04.346Z,10.69
2023-05-06T01:36:03.218Z,10.63
2023-05-06T01:38:42.425Z,10.75
2023-05-06T01:41:16.947Z,10.74
2023-05-06T01:43:48.050Z,10.68
2023-05-06T01:46:22.235Z,10.69
2023-05-06T01:48:55.068Z,10.76
2023-05-06T01:51:24.861Z,10.75
2023-05-06T01:53:52.891Z,10.87
2023-05-06T01:56:20.799Z,10.76
2023-05-06T01:58:48.729Z,10.81
2023-05-06T02:01:16.743Z,10.88
2023-05-06T02:03:44.724Z,10.75
2023-05-06T02:06:12.828Z,10.63
2023-05-06T02:08:41.194Z,10.65
2023-05-06T02:11:11.264Z,10.83
2023-05-06T02:13:39.452Z,10.87
2023-05-06T02:16:09.070Z,10.76
2023-05-06T02:18:38.182Z,10.70
2023-05-06T02:21:06.189Z,10.67
2023-05-06T02:23:34.079Z,10.67
2023-05-06T02:26:02.012Z,10.83
2023-05-06T02:28:30.232Z,10.91
2023-05-06T02:30:58.833Z,10.75
2023-05-06T02:33:26.691Z,10.71
2023-05-06T02:35:54.579Z,10.79
2023-05-06T02:38:22.873Z,10.83
2023-05-06T02:40:50.732Z,10.62
2023-05-06T02:43:18.656Z,10.66
2023-05-06T02:45:46.577Z,10.65
2023-05-06T02:48:14.439Z,10.69
2023-05-06T02:50:42.263Z,10.43
2023-05-06T02:53:10.513Z,10.54
2023-05-06T02:55:38.976Z,10.45
2023-05-06T02:58:07.309Z,10.58
2023-05-06T03:00:35.329Z,10.66
2023-05-06T03:03:03.853Z,10.41
2023-05-06T03:05:31.827Z,10.49
2023-05-06T03:07:59.675Z,10.68
2023-05-06T03:10:28.309Z,10.61
2023-05-06T03:12:56.697Z,10.50
2023-05-06T03:15:24.655Z,10.43
2023-05-06T03:17:52.567Z,10.43
2023-05-06T03:20:21.368Z,10.40
2023-05-06T03:22:52.056Z,10.44
2023-05-06T03:25:21.191Z,10.51
2023-05-06T03:27:49.026Z,10.54
2023-05-06T03:30:20.091Z,10.41
2023-05-06T03:32:49.140Z,10.45
2023-05-06T03:35:22.931Z,10.32
2023-05-06T03:37:54.323Z,10.27
2023-05-06T03:40:22.974Z,10.25
2023-05-06T03:42:52.076Z,10.47
2023-05-06T03:45:20.502Z,10.46
2023-05-06T03:47:48.951Z,10.50
2023-05-06T03:50:17.691Z,10.41
2023-05-06T03:52:45.812Z,10.48
2023-05-06T03:55:13.767Z,10.37
2023-05-06T03:57:41.666Z,10.47
2023-05-06T04:00:10.552Z,10.54
2023-05-06T04:02:44.086Z,10.44
2023-05-06T04:05:16.812Z,10.22
2023-05-06T04:07:45.542Z,10.25
2023-05-06T04:10:13.456Z,10.23
2023-05-06T04:12:42.167Z,10.40
2023-05-06T04:15:14.561Z,10.28
2023-05-06T04:17:43.563Z,10.10
2023-05-06T04:20:12.474Z,10.28
2023-05-06T04:22:40.706Z,10.34
2023-05-06T04:25:09.666Z,10.39
2023-05-06T04:27:38.463Z,10.46
2023-05-06T04:30:08.541Z,10.39
2023-05-06T04:32:38.578Z,10.51
2023-05-06T04:35:08.097Z,10.54
2023-05-06T04:37:37.946Z,10.66
2023-05-06T04:40:13.734Z,10.75
2023-05-06T04:42:42.779Z,10.79
2023-05-06T04:45:15.651Z,10.80
2023-05-06T04:47:45.873Z,10.69
2023-05-06T04:50:14.626Z,10.79
2023-05-06T04:52:43.443Z,10.81
2023-05-06T04:55:12.489Z,10.85
2023-05-06T04:57:44.098Z,10.92
2023-05-06T05:00:14.742Z,11.11
2023-05-06T05:02:42.963Z,11.15
2023-05-06T05:05:11.389Z,11.01
2023-05-06T05:07:40.479Z,10.71
2023-05-06T05:10:10.303Z,10.70
2023-05-06T05:12:38.594Z,10.74
2023-05-06T05:15:07.312Z,10.67
2023-05-06T05:17:35.538Z,10.61
2023-05-06T05:20:05.710Z,10.79
2023-05-06T05:22:33.824Z,10.85
2023-05-06T05:25:02.178Z,10.58
2023-05-06T05:27:30.569Z,10.69
2023-05-06T05:29:58.856Z,10.75
2023-05-06T05:32:27.654Z,10.85
2023-05-06T05:34:55.584Z,10.76
2023-05-06T05:37:23.790Z,10.87
2023-05-06T05:39:52.264Z,10.71
2023-05-06T05:42:20.439Z,10.51
2023-05-06T05:44:48.848Z,10.40
2023-05-06T05:47:17.487Z,10.33
2023-05-06T05:49:45.888Z,10.43
2023-05-06T05:52:14.709Z,10.38
2023-05-06T05:54:43.560Z,10.33
2023-05-06T05:57:11.428Z,10.43
2023-05-06T05:59:40.382Z,10.50
2023-05-06T06:02:08.613Z,10.45
2023-05-06T06:04:36.583Z,10.47
2023-05-06T06:07:05.868Z,10.51
2023-05-06T06:09:36.947Z,10.51
2023-05-06T06:12:05.743Z,10.63
2023-05-06T06:14:34.508Z,10.37
2023-05-06T06:17:02.805Z,10.01
2023-05-06T06:19:31.348Z,9.97
2023-05-06T06:21:59.648Z,10.09
2023-05-06T06:24:27.684Z,10.23
2023-05-06T06:26:55.593Z,10.27
2023-05-06T06:29:23.485Z,10.19
2023-05-06T06:31:51.413Z,10.26
2023-05-06T06:34:19.447Z,10.30
2023-05-06T06:36:47.697Z,10.07
2023-05-06T06:39:15.650Z,10.24
2023-05-06T06:41:43.668Z,10.29
2023-05-06T06:44:11.545Z,10.46
2023-05-06T06:46:39.510Z,10.56
2023-05-06T06:49:07.353Z,10.51
2023-05-06T06:51:35.311Z,10.47
2023-05-06T06:54:03.440Z,10.63
2023-05-06T06:56:31.896Z,10.62
2023-05-06T06:58:59.878Z,10.46
2023-05-06T07:01:27.911Z,10.40
2023-05-06T07:03:56.196Z,10.23
2023-05-06T07:06:24.062Z,10.18
2023-05-06T07:08:51.924Z,10.37
2023-05-06T07:11:19.848Z,10.34
2023-05-06T07:13:47.713Z,10.10
2023-05-06T07:16:15.648Z,10.14
2023-05-06T07:18:43.494Z,10.08
2023-05-06T07:21:11.379Z,10.12
2023-05-06T07:23:39.326Z,10.24
2023-05-06T07:26:07.265Z,10.22
2023-05-06T07:28:35.155Z,9.88
2023-05-06T07:31:03.203Z,9.84
2023-05-06T07:33:40.750Z,9.98
2023-05-06T07:36:10.627Z,10.02
2023-05-06T07:38:38.570Z,10.09
2023-05-06T07:41:06.446Z,10.17
2023-05-06T07:43:34.338Z,10.14
2023-05-06T07:46:03.013Z,9.78
2023-05-06T07:48:35.351Z,9.91
2023-05-06T07:51:03.929Z,10.13
2023-05-06T07:53:31.879Z,9.98
2023-05-06T07:56:02.249Z,9.74
2023-05-06T07:58:31.725Z,9.92
2023-05-06T08:01:00.171Z,10.07
2023-05-06T08:03:28.235Z,10.15
2023-05-06T08:05:56.439Z,10.16
2023-05-06T08:08:28.160Z,10.22
2023-05-06T08:10:58.479Z,10.18
2023-05-06T08:13:28.050Z,10.03
2023-05-06T08:15:56.091Z,9.94
2023-05-06T08:18:24.157Z,9.71
2023-05-06T08:20:52.181Z,9.73
2023-05-06T08:23:20.734Z,9.70
2023-05-06T08:25:48.617Z,9.63
2023-05-06T08:28:16.921Z,9.86
2023-05-06T08:30:47.660Z,9.87
2023-05-06T08:33:15.620Z,9.85
2023-05-06T08:35:44.801Z,9.86
2023-05-06T08:38:12.739Z,9.92
2023-05-06T08:40:44.921Z,9.72
2023-05-06T08:43:14.705Z,9.52
2023-05-06T08:45:42.793Z,9.62
2023-05-06T08:48:11.267Z,9.75
2023-05-06T08:50:43.287Z,9.69
2023-05-06T08:53:13.576Z,9.53
2023-05-06T08:55:42.706Z,9.20
2023-05-06T08:58:15.711Z,9.48
2023-05-06T09:00:44.415Z,9.54
2023-05-06T09:03:12.427Z,9.37
2023-05-06T09:05:40.809Z,9.41
2023-05-06T09:08:08.751Z,9.57
2023-05-06T09:10:44.858Z,9.42
2023-05-06T09:13:15.869Z,9.14
2023-05-06T09:15:49.941Z,8.98
2023-05-06T09:18:18.080Z,9.12
2023-05-06T09:20:49.123Z,8.97
2023-05-06T09:23:18.324Z,9.28
2023-05-06T09:25:47.537Z,9.32
2023-05-06T09:28:15.518Z,9.50
2023-05-06T09:30:47.456Z,9.49
2023-05-06T09:33:16.165Z,9.46
2023-05-06T09:35:44.377Z,9.68
2023-05-06T09:38:12.348Z,9.38
2023-05-06T09:40:40.347Z,9.56
2023-05-06T09:43:09.981Z,9.47
2023-05-06T09:45:37.829Z,9.20
2023-05-06T09:48:08.336Z,8.95
2023-05-06T09:50:36.651Z,8.70
2023-05-06T09:53:06.074Z,8.56
2023-05-06T09:55:35.466Z,8.31
2023-05-06T09:58:05.465Z,8.56
2023-05-06T10:00:34.278Z,8.94
2023-05-06T10:03:04.449Z,8.64
2023-05-06T10:05:38.581Z,8.81
2023-05-06T10:08:09.040Z,8.88
2023-05-06T10:10:40.472Z,8.81
2023-05-06T10:13:10.500Z,8.84
2023-05-06T10:15:39.259Z,8.69
2023-05-06T10:18:09.718Z,8.54
2023-05-06T10:20:42.798Z,8.68
2023-05-06T10:23:29.087Z,8.72
2023-05-06T10:26:06.519Z,8.62
2023-05-06T10:28:41.197Z,8.35
2023-05-06T10:31:13.919Z,8.28
2023-05-06T10:33:44.874Z,8.19
2023-05-06T10:36:21.524Z,8.07
2023-05-06T10:38:56.664Z,8.12
2023-05-06T10:41:27.888Z,8.21
2023-05-06T10:43:57.540Z,8.12
2023-05-06T10:46:28.236Z,8.00
2023-05-06T10:49:08.579Z,8.17
2023-05-06T10:51:43.688Z,8.38
2023-05-06T10:54:24.040Z,8.25
2023-05-06T10:56:52.571Z,8.08
2023-05-06T10:59:24.569Z,8.14
2023-05-06T11:02:08.381Z,8.06
2023-05-06T11:04:37.550Z,8.22
2023-05-06T11:07:22.323Z,8.11
2023-05-06T11:10:02.070Z,8.08
2023-05-06T11:12:53.504Z,8.13
2023-05-06T11:15:37.395Z,7.96
2023-05-06T11:18:26.761Z,8.05
2023-05-06T11:21:05.129Z,7.97
2023-05-06T11:23:42.550Z,8.07
2023-05-06T11:26:12.554Z,8.04
2023-05-06T11:28:44.935Z,7.91
2023-05-06T11:31:14.163Z,8.03
2023-05-06T11:33:47.792Z,8.08
2023-05-06T11:36:18.569Z,8.05
2023-05-06T11:38:56.171Z,8.03
2023-05-06T11:41:24.209Z,7.88
2023-05-06T11:43:53.310Z,7.71
2023-05-06T11:46:24.116Z,7.81
2023-05-06T11:48:52.316Z,7.91
2023-05-06T11:51:24.603Z,7.78
2023-05-06T11:54:05.041Z,7.70
2023-05-06T11:56:54.348Z,7.89
2023-05-06T11:59:34.732Z,7.65
2023-05-06T12:02:07.766Z,7.64
2023-05-06T12:04:43.932Z,7.71
2023-05-06T12:07:14.485Z,7.75
2023-05-06T12:09:47.355Z,7.66
2023-05-06T12:12:18.977Z,7.67
2023-05-06T12:14:47.605Z,7.45
2023-05-06T12:17:16.518Z,7.52
2023-05-06T12:19:46.743Z,7.56
2023-05-06T12:22:18.040Z,7.76
2023-05-06T12:24:47.616Z,7.87
2023-05-06T12:27:33.119Z,7.86
2023-05-06T12:30:04.129Z,7.82
2023-05-06T12:32:32.114Z,7.68
2023-05-06T12:35:05.709Z,7.45
2023-05-06T12:37:33.802Z,7.55
2023-05-06T12:40:01.705Z,7.64
2023-05-06T12:42:29.617Z,7.46
2023-05-06T12:44:57.811Z,7.50
2023-05-06T12:47:26.273Z,7.53
2023-05-06T12:50:01.016Z,7.49
2023-05-06T12:52:30.090Z,7.35
2023-05-06T12:55:01.448Z,7.33
2023-05-06T12:57:29.362Z,7.52
2023-05-06T12:59:57.230Z,7.45
2023-05-06T13:02:25.317Z,7.56
2023-05-06T13:04:53.648Z,7.60
2023-05-06T13:07:22.319Z,7.56
2023-05-06T13:09:50.482Z,7.60
2023-05-06T13:12:18.416Z,7.53
2023-05-06T13:14:46.292Z,7.56
2023-05-06T13:17:14.841Z,7.57
2023-05-06T13:19:43.031Z,7.68
2023-05-06T13:22:11.152Z,7.69
2023-05-06T13:24:39.132Z,7.83
2023-05-06T13:27:07.184Z,7.88
2023-05-06T13:29:35.447Z,7.94
2023-05-06T13:32:05.149Z,7.99
2023-05-06T13:34:34.356Z,7.88
2023-05-06T13:37:02.239Z,8.38
2023-05-06T13:39:30.753Z,8.92
2023-05-06T13:41:58.659Z,8.88
2023-05-06T13:44:26.590Z,8.81
2023-05-06T13:46:54.562Z,9.04
2023-05-06T13:49:22.550Z,9.09
2023-05-06T13:51:50.467Z,9.11
2023-05-06T13:54:18.348Z,9.00
2023-05-06T13:56:46.189Z,9.06
2023-05-06T13:59:14.177Z,9.13
2023-05-06T14:01:42.824Z,9.18
2023-05-06T14:04:10.787Z,9.03
2023-05-06T14:06:38.775Z,9.07
2023-05-06T14:09:08.066Z,9.03
2023-05-06T14:11:36.080Z,9.20
2023-05-06T14:14:05.213Z,9.31
2023-05-06T14:16:33.815Z,9.34
2023-05-06T14:19:01.720Z,9.10
2023-05-06T14:21:29.610Z,9.28
2023-05-06T14:23:57.733Z,9.32
2023-05-06T14:26:26.798Z,9.48
2023-05-06T14:28:54.753Z,9.68
2023-05-06T14:31:23.466Z,9.83
2023-05-06T14:33:51.390Z,9.46
2023-05-06T14:36:20.211Z,9.37
2023-05-06T14:38:48.082Z,9.58
2023-05-06T14:41:16.222Z,9.64
2023-05-06T14:43:44.106Z,9.68
2023-05-06T14:46:14.451Z,9.91
2023-05-06T14:48:43.324Z,9.85
2023-05-06T14:51:11.399Z,10.02
2023-05-06T14:53:39.349Z,10.02
2023-05-06T14:56:10.581Z,9.77
2023-05-06T14:58:39.309Z,9.59
2023-05-06T15:01:07.374Z,9.84
2023-05-06T15:03:36.325Z,9.89
2023-05-06T15:06:04.551Z,9.98
2023-05-06T15:08:32.520Z,9.87
2023-05-06T15:11:03.087Z,9.81
2023-05-06T15:13:31.978Z,9.80
2023-05-06T15:15:59.980Z,9.53
2023-05-06T15:18:27.909Z,9.49
2023-05-06T15:20:58.587Z,9.76
2023-05-06T15:23:27.216Z,9.83
2023-05-06T15:25:58.003Z,9.75
2023-05-06T15:28:25.978Z,9.60
2023-05-06T15:30:53.861Z,9.81
2023-05-06T15:33:22.200Z,9.79
2023-05-06T15:35:50.351Z,9.66
2023-05-06T15:38:18.415Z,9.72
2023-05-06T15:40:51.464Z,9.93
2023-05-06T15:43:23.778Z,9.67
2023-05-06T15:45:52.554Z,9.70
2023-05-06T15:48:20.496Z,9.75
2023-05-06T15:50:48.362Z,9.72
2023-05-06T15:53:17.032Z,9.65
2023-05-06T15:55:49.506Z,9.70
2023-05-06T15:58:24.521Z,9.52
2023-05-06T16:00:52.483Z,9.45
2023-05-06T16:03:21.141Z,9.58
2023-05-06T16:05:49.309Z,9.71
2023-05-06T16:08:17.244Z,9.82
2023-05-06T16:10:46.131Z,9.84
2023-05-06T16:13:14.190Z,9.73
2023-05-06T16:15:42.190Z,9.40
2023-05-06T16:18:11.106Z,9.61
2023-05-06T16:20:39.193Z,9.80
2023-05-06T16:23:07.208Z,9.89
2023-05-06T16:25:37.750Z,9.81
2023-05-06T16:28:06.579Z,9.85
2023-05-06T16:30:35.415Z,9.89
2023-05-06T16:33:05.028Z,9.79
2023-05-06T16:35:33.066Z,9.70
2023-05-06T16:38:00.898Z,9.43
2023-05-06T16:40:31.079Z,9.64
2023-05-06T16:42:59.183Z,9.76
2023-05-06T16:45:27.029Z,9.61
2023-05-06T16:47:55.883Z,9.40
2023-05-06T16:50:23.785Z,9.59
2023-05-06T16:52:53.005Z,9.70
2023-05-06T16:55:21.902Z,9.66
2023-05-06T16:57:50.060Z,9.62
2023-05-06T17:00:18.582Z,9.41
2023-05-06T17:02:47.701Z,9.48
2023-05-06T17:05:16.134Z,9.53
2023-05-06T17:07:44.756Z,9.63
2023-05-06T17:10:12.927Z,9.54
2023-05-06T17:12:42.255Z,9.51
2023-05-06T17:15:11.403Z,9.63
2023-05-06T17:17:39.980Z,9.62
2023-05-06T17:20:10.632Z,9.64
2023-05-06T17:22:38.818Z,9.41
2023-05-06T17:25:07.488Z,9.50
2023-05-06T17:27:35.421Z,9.60
2023-05-06T17:30:03.690Z,9.46
2023-05-06T17:32:31.629Z,9.41
2023-05-06T17:34:59.596Z,9.39
2023-05-06T17:37:27.470Z,9.18
2023-05-06T17:39:55.417Z,9.25
2023-05-06T17:42:23.560Z,9.34
2023-05-06T17:44:51.490Z,9.44
2023-05-06T17:47:22.834Z,9.36
2023-05-06T17:49:53.021Z,9.17
2023-05-06T17:52:21.254Z,9.26
2023-05-06T17:55:01.047Z,9.37
2023-05-06T17:57:30.379Z,9.36
2023-05-06T17:59:58.312Z,9.46
2023-05-06T18:02:26.232Z,9.45
2023-05-06T18:04:54.208Z,9.38
2023-05-06T18:07:22.135Z,9.18
2023-05-06T18:09:51.986Z,9.31
2023-05-06T18:12:20.063Z,9.45
2023-05-06T18:14:48.070Z,9.33
2023-05-06T18:17:15.963Z,9.07
2023-05-06T18:19:43.851Z,8.29
2023-05-06T18:22:11.757Z,8.17
2023-05-06T18:24:39.764Z,8.10
2023-05-06T18:27:07.774Z,8.14
2023-05-06T18:29:35.761Z,8.13
2023-05-06T18:32:04.215Z,8.04
2023-05-06T18:34:32.231Z,7.95
2023-05-06T18:37:00.654Z,8.02
2023-05-06T18:39:28.553Z,8.05
2023-05-06T18:41:56.443Z,8.08
2023-05-06T18:44:24.518Z,8.13
2023-05-06T18:46:52.548Z,8.06
2023-05-06T18:49:20.355Z,8.02
2023-05-06T18:51:48.292Z,7.99
2023-05-06T18:54:16.343Z,8.06
2023-05-06T18:56:44.450Z,8.14
2023-05-06T18:59:13.111Z,8.18
2023-05-06T19:01:41.513Z,8.12
2023-05-06T19:04:09.543Z,8.37
2023-05-06T19:06:38.587Z,8.96
2023-05-06T19:09:08.092Z,9.16
2023-05-06T19:11:36.085Z,8.75
2023-05-06T19:14:04.530Z,8.31
2023-05-06T19:16:35.412Z,8.22
2023-05-06T19:19:06.937Z,8.16
2023-05-06T19:21:38.341Z,8.07
2023-05-06T19:24:06.489Z,8.08
2023-05-06T19:26:34.597Z,8.01
2023-05-06T19:29:03.389Z,8.02
2023-05-06T19:31:31.592Z,7.89
2023-05-06T19:33:59.504Z,7.93
2023-05-06T19:36:28.307Z,7.99
2023-05-06T19:38:56.309Z,7.99
2023-05-06T19:41:24.422Z,7.94
2023-05-06T19:43:52.296Z,7.97
2023-05-06T19:46:20.279Z,8.00
2023-05-06T19:48:48.561Z,7.90
2023-05-06T19:51:16.662Z,7.89
2023-05-06T19:53:44.802Z,7.85
2023-05-06T19:56:14.114Z,7.78
2023-05-06T19:58:42.226Z,7.87
2023-05-06T20:01:10.258Z,7.93
2023-05-06T20:03:39.059Z,7.91
2023-05-06T20:06:07.165Z,7.89
2023-05-06T20:08:35.371Z,7.86
2023-05-06T20:11:03.572Z,7.88
2023-05-06T20:13:31.798Z,7.86
2023-05-06T20:16:00.315Z,7.90
2023-05-06T20:18:28.262Z,7.89
2023-05-06T20:20:56.314Z,7.84
2023-05-06T20:23:24.147Z,7.90
2023-05-06T20:25:55.036Z,7.82
2023-05-06T20:28:23.368Z,7.83
2023-05-06T20:30:51.556Z,7.77
2023-05-06T20:33:19.445Z,7.79
2023-05-06T20:35:48.153Z,7.84
2023-05-06T20:38:16.913Z,7.85
2023-05-06T20:40:44.892Z,8.05
2023-05-06T20:43:12.867Z,8.69
2023-05-06T20:45:40.731Z,8.66
2023-05-06T20:48:08.630Z,8.70
2023-05-06T20:50:37.097Z,8.01
2023-05-06T20:53:05.064Z,7.82
2023-05-06T20:55:33.747Z,7.84
2023-05-06T20:58:01.853Z,7.82
2023-05-06T21:00:29.834Z,7.78
2023-05-06T21:02:57.776Z,7.87
2023-05-06T21:05:25.987Z,7.90
2023-05-06T21:07:53.917Z,7.88
2023-05-06T21:10:21.867Z,7.83
2023-05-06T21:12:50.854Z,7.91
2023-05-06T21:15:18.880Z,7.93
2023-05-06T21:17:47.267Z,7.81
2023-05-06T21:20:16.541Z,7.82
2023-05-06T21:22:44.514Z,7.81
2023-05-06T21:25:13.196Z,7.84
2023-05-06T21:27:41.389Z,7.85
2023-05-06T21:30:10.325Z,7.86
2023-05-06T21:32:38.278Z,7.90
2023-05-06T21:35:06.731Z,7.92
2023-05-06T21:37:35.841Z,7.93
2023-05-06T21:40:04.428Z,7.89
2023-05-06T21:42:32.399Z,7.98
2023-05-06T21:45:00.291Z,7.99
2023-05-06T21:47:28.215Z,7.96
2023-05-06T21:49:56.080Z,7.93
2023-05-06T21:52:24.724Z,7.79
2023-05-06T21:54:52.620Z,7.82
2023-05-06T21:57:20.531Z,7.75
2023-05-06T21:59:48.352Z,7.82
2023-05-06T22:02:16.368Z,7.79
2023-05-06T22:04:44.544Z,7.78
2023-05-06T22:07:12.565Z,7.80
2023-05-06T22:09:40.536Z,7.74
2023-05-06T22:12:11.513Z,7.83
2023-05-06T22:14:41.511Z,7.84
2023-05-06T22:17:10.849Z,7.76
2023-05-06T22:19:40.820Z,7.74
2023-05-06T22:22:09.195Z,7.81
2023-05-06T22:24:37.150Z,7.84
2023-05-06T22:27:05.351Z,7.90
2023-05-06T22:29:35.033Z,7.87
2023-05-06T22:32:03.187Z,7.73
2023-05-06T22:34:31.463Z,7.80
2023-05-06T22:37:00.943Z,7.76
2023-05-06T22:39:29.569Z,8.31
2023-05-06T22:41:57.461Z,8.78
2023-05-06T22:44:25.450Z,8.54
2023-05-06T22:46:54.717Z,8.61
2023-05-06T22:49:23.522Z,8.87
2023-05-06T22:51:52.187Z,8.88
2023-05-06T22:54:19.968Z,8.76
2023-05-06T22:56:47.912Z,8.75
2023-05-06T22:59:16.056Z,8.71
2023-05-06T23:01:44.018Z,8.58
2023-05-06T23:04:11.927Z,8.63
2023-05-06T23:06:40.048Z,8.58
2023-05-06T23:09:08.233Z,8.72
2023-05-06T23:11:36.071Z,8.80
2023-05-06T23:14:04.649Z,8.75
2023-05-06T23:16:33.166Z,8.66
2023-05-06T23:19:01.261Z,8.58
2023-05-06T23:21:29.196Z,8.63
2023-05-06T23:23:57.037Z,8.56
2023-05-06T23:26:25.180Z,8.63
2023-05-06T23:28:52.997Z,8.78
2023-05-06T23:31:20.933Z,8.66
2023-05-06T23:33:48.860Z,8.73
2023-05-06T23:36:17.631Z,8.80
2023-05-06T23:38:45.455Z,8.68
2023-05-06T23:41:13.396Z,8.75
2023-05-06T23:43:41.273Z,8.79
2023-05-06T23:46:09.149Z,8.81
2023-05-06T23:48:38.022Z,8.80
2023-05-06T23:51:05.937Z,8.71
2023-05-06T23:53:35.967Z,8.61
2023-05-06T23:56:04.488Z,8.69
2023-05-06T23:58:32.319Z,8.64
